| time (UTC) | temp F | wind direction | speed knots | gust knots | rain 1hr in | rain 24hr in | rain mn in | humidity % | barometer mb |
| 20260510054543 | 51 | 231 | 5.2 | 14.8 | 0.00 | 0.38 | 0.00 | 85 | 1010.6 |
| 20260510053050 | 50 | 192 | 3.5 | 9.6 | 0.00 | 0.38 | 0.00 | 86 | 1010.3 |
| 20260510051603 | 49 | 231 | 1.7 | 6.1 | 0.00 | 0.38 | 0.00 | 87 | 1010.2 |
| 20260510050105 | 49 | 190 | 2.6 | 9.6 | 0.00 | 0.38 | 0.00 | 87 | 1009.9 |
| 20260510044545 | 49 | 205 | 2.6 | 7.0 | 0.00 | 0.38 | 0.00 | 87 | 1009.8 |
| 20260510043048 | 49 | 274 | 1.7 | 7.0 | 0.00 | 0.38 | 0.00 | 88 | 1009.7 |
| 20260510041551 | 49 | 188 | 3.5 | 7.8 | 0.00 | 0.38 | 0.00 | 88 | 1009.7 |
| 20260510040046 | 49 | 188 | 3.5 | 9.6 | 0.00 | 0.38 | 0.00 | 87 | 1009.9 |
| 20260510034547 | 49 | 200 | 4.3 | 12.2 | 0.00 | 0.38 | 0.38 | 88 | 1009.7 |
| 20260510033053 | 47 | 200 | 3.5 | 7.0 | 0.00 | 0.38 | 0.38 | 89 | 1009.5 |
| 20260510031549 | 47 | 212 | 1.7 | 6.1 | 0.00 | 0.38 | 0.38 | 89 | 1009.6 |
| 20260510030047 | 47 | 0 | 0.0 | 3.5 | 0.00 | 0.38 | 0.38 | 89 | 1009.7 |
| 20260510024549 | 47 | 206 | 0.0 | 3.5 | 0.00 | 0.38 | 0.38 | 88 | 1009.6 |
| 20260510023044 | 48 | 180 | 0.0 | 5.2 | 0.00 | 0.38 | 0.38 | 88 | 1009.4 |
| 20260510021637 | 48 | 0 | 0.9 | 5.2 | 0.00 | 0.38 | 0.38 | 87 | 1009.7 |
| 20260510020050 | 49 | 277 | 0.9 | 7.0 | 0.00 | 0.38 | 0.38 | 86 | 1009.5 |
| 20260510014556 | 49 | 0 | 0.0 | 2.6 | 0.00 | 0.38 | 0.38 | 86 | 1009.6 |
| 20260510013057 | 50 | 181 | 0.9 | 7.0 | 0.00 | 0.38 | 0.38 | 84 | 1009.2 |
| 20260510011547 | 50 | 169 | 2.6 | 7.8 | 0.00 | 0.38 | 0.38 | 84 | 1009.3 |
| 20260510010056 | 50 | 167 | 3.5 | 7.0 | 0.00 | 0.38 | 0.38 | 84 | 1009.4 |
| 20260510004549 | 50 | 207 | 1.7 | 7.8 | 0.00 | 0.38 | 0.38 | 84 | 1009.1 |
| 20260510003050 | 50 | 298 | 1.7 | 7.8 | 0.00 | 0.38 | 0.38 | 84 | 1009.1 |
| 20260510001548 | 50 | 221 | 2.6 | 7.0 | 0.00 | 0.38 | 0.38 | 83 | 1008.9 |
| 20260510000048 | 51 | 229 | 3.5 | 8.7 | 0.00 | 0.38 | 0.38 | 82 | 1008.8 |
| 20260509234549 | 51 | 275 | 3.5 | 11.3 | 0.00 | 0.38 | 0.38 | 82 | 1008.6 |
| 20260509233050 | 51 | 247 | 4.3 | 9.6 | 0.00 | 0.38 | 0.38 | 82 | 1008.5 |
| 20260509231548 | 51 | 222 | 4.3 | 12.2 | 0.00 | 0.38 | 0.38 | 81 | 1008.4 |
| 20260509230054 | 51 | 202 | 3.5 | 10.4 | 0.00 | 0.38 | 0.38 | 81 | 1008.2 |
| 20260509224549 | 51 | 279 | 3.5 | 11.3 | 0.00 | 0.38 | 0.38 | 81 | 1008.2 |
| 20260509223052 | 51 | 210 | 5.2 | 14.8 | 0.00 | 0.38 | 0.38 | 82 | 1008.3 |
| 20260509221543 | 51 | 224 | 4.3 | 12.2 | 0.00 | 0.38 | 0.38 | 83 | 1008.3 |
| 20260509220049 | 51 | 251 | 4.3 | 15.6 | 0.00 | 0.38 | 0.38 | 82 | 1008.4 |
| 20260509214546 | 51 | 198 | 5.2 | 15.6 | 0.00 | 0.38 | 0.38 | 83 | 1008.6 |
| 20260509213105 | 51 | 205 | 6.1 | 14.8 | 0.00 | 0.38 | 0.38 | 82 | 1008.6 |
| 20260509211546 | 51 | 246 | 5.2 | 13.9 | 0.00 | 0.38 | 0.38 | 81 | 1008.6 |
| 20260509210050 | 51 | 242 | 7.0 | 13.9 | 0.00 | 0.38 | 0.38 | 82 | 1008.6 |
| 20260509204550 | 50 | 185 | 5.2 | 13.0 | 0.00 | 0.38 | 0.38 | 84 | 1008.6 |
| 20260509203048 | 50 | 207 | 3.5 | 13.0 | 0.00 | 0.38 | 0.38 | 85 | 1008.7 |
| 20260509201548 | 50 | 314 | 6.1 | 13.0 | 0.00 | 0.38 | 0.38 | 84 | 1009.0 |
| 20260509200052 | 49 | 240 | 5.2 | 13.0 | 0.01 | 0.38 | 0.38 | 85 | 1009.0 |
| 20260509194554 | 49 | 226 | 7.8 | 15.6 | 0.01 | 0.38 | 0.38 | 85 | 1009.2 |
| 20260509193051 | 49 | 202 | 3.5 | 9.6 | 0.01 | 0.38 | 0.38 | 86 | 1009.3 |
| 20260509191603 | 49 | 178 | 4.3 | 9.6 | 0.01 | 0.38 | 0.38 | 86 | 1009.4 |
| 20260509190050 | 49 | 194 | 3.5 | 10.4 | 0.01 | 0.37 | 0.37 | 87 | 1009.5 |
| 20260509184557 | 49 | 250 | 2.6 | 10.4 | 0.01 | 0.37 | 0.37 | 87 | 1009.6 |
| 20260509183055 | 49 | 196 | 1.7 | 8.7 | 0.01 | 0.37 | 0.37 | 87 | 1009.7 |
| 20260509181555 | 49 | 167 | 2.6 | 8.7 | 0.01 | 0.37 | 0.37 | 85 | 1009.6 |
| 20260509180115 | 49 | 152 | 3.5 | 8.7 | 0.00 | 0.36 | 0.36 | 85 | 1009.6 |
| 20260509174549 | 49 | 191 | 0.0 | 4.3 | 0.01 | 0.36 | 0.36 | 86 | 1009.4 |
| 20260509173104 | 49 | 180 | 3.5 | 10.4 | 0.02 | 0.36 | 0.36 | 87 | 1009.5 |
| 20260509171550 | 48 | 194 | 2.6 | 6.1 | 0.03 | 0.36 | 0.36 | 87 | 1009.7 |
| 20260509170050 | 48 | 0 | 2.6 | 8.7 | 0.03 | 0.36 | 0.36 | 88 | 1009.8 |
| 20260509164554 | 48 | 190 | 4.3 | 9.6 | 0.03 | 0.37 | 0.35 | 89 | 1010.1 |
| 20260509163055 | 48 | 196 | 2.6 | 6.1 | 0.03 | 0.36 | 0.34 | 90 | 1010.3 |
| 20260509161558 | 47 | 196 | 1.7 | 4.3 | 0.03 | 0.35 | 0.33 | 91 | 1010.4 |
| 20260509154600 | 46 | 0 | 0.0 | 2.6 | 0.04 | 0.36 | 0.32 | 94 | 1010.7 |
| 20260509153100 | 45 | 42 | 0.9 | 2.6 | 0.05 | 0.35 | 0.31 | 94 | 1011.0 |
| 20260509151549 | 45 | 56 | 0.0 | 3.5 | 0.06 | 0.34 | 0.30 | 94 | 1011.1 |
| 20260509150044 | 44 | 0 | 0.0 | 2.6 | 0.06 | 0.33 | 0.29 | 94 | 1011.2 |
| 20260509144549 | 44 | 0 | 0.0 | 2.6 | 0.06 | 0.32 | 0.28 | 94 | 1011.3 |
| 20260509143047 | 44 | 0 | 0.0 | 1.7 | 0.06 | 0.30 | 0.26 | 94 | 1011.5 |
| 20260509141544 | 43 | 0 | 0.0 | 2.6 | 0.06 | 0.28 | 0.24 | 94 | 1011.4 |
| 20260509140103 | 43 | 145 | 0.0 | 0.9 | 0.06 | 0.27 | 0.23 | 93 | 1011.3 |
| 20260509134545 | 43 | 0 | 0.0 | 0.0 | 0.06 | 0.26 | 0.22 | 94 | 1011.3 |
| 20260509133045 | 42 | 0 | 0.0 | 0.9 | 0.04 | 0.24 | 0.20 | 93 | 1011.5 |
| 20260509131550 | 41 | 0 | 0.0 | 0.0 | 0.02 | 0.22 | 0.18 | 94 | 1011.5 |
| 20260509130049 | 41 | 0 | 0.0 | 0.9 | 0.02 | 0.21 | 0.17 | 93 | 1011.5 |
| 20260509124555 | 40 | 150 | 0.0 | 2.6 | 0.02 | 0.20 | 0.16 | 93 | 1011.5 |
| 20260509123050 | 40 | 0 | 0.0 | 0.0 | 0.03 | 0.20 | 0.16 | 93 | 1011.5 |
| 20260509121550 | 39 | 0 | 0.0 | 0.0 | 0.04 | 0.20 | 0.16 | 93 | 1011.6 |
| 20260509120053 | 39 | 0 | 0.0 | 0.0 | 0.03 | 0.19 | 0.15 | 93 | 1011.6 |
| 20260509114548 | 38 | 0 | 0.0 | 0.0 | 0.02 | 0.18 | 0.14 | 93 | 1011.7 |
| 20260509113048 | 38 | 0 | 0.0 | 0.0 | 0.01 | 0.17 | 0.13 | 93 | 1011.6 |
| 20260509111558 | 38 | 0 | 0.0 | 0.9 | 0.01 | 0.16 | 0.12 | 93 | 1011.6 |
| 20260509110053 | 38 | 0 | 0.0 | 1.7 | 0.01 | 0.16 | 0.12 | 93 | 1011.7 |
| 20260509104546 | 38 | 0 | 0.0 | 0.0 | 0.01 | 0.16 | 0.12 | 92 | 1011.5 |
| 20260509103105 | 37 | 0 | 0.0 | 0.0 | 0.01 | 0.16 | 0.12 | 92 | 1011.5 |
| 20260509101557 | 37 | 0 | 0.0 | 0.0 | 0.00 | 0.15 | 0.11 | 92 | 1011.6 |
| 20260509100055 | 37 | 0 | 0.0 | 0.0 | 0.00 | 0.15 | 0.11 | 92 | 1011.5 |
| 20260509094555 | 37 | 0 | 0.0 | 0.0 | 0.01 | 0.15 | 0.11 | 92 | 1011.6 |
| 20260509093053 | 37 | 0 | 0.0 | 0.0 | 0.02 | 0.15 | 0.11 | 91 | 1011.7 |
| 20260509091555 | 37 | 0 | 0.0 | 0.0 | 0.05 | 0.15 | 0.11 | 91 | 1011.8 |
| 20260509090116 | 36 | 0 | 0.0 | 2.6 | 0.07 | 0.15 | 0.11 | 91 | 1011.9 |
| 20260509084558 | 37 | 0 | 0.0 | 0.9 | 0.08 | 0.14 | 0.10 | 91 | 1012.0 |
| 20260509083105 | 37 | 0 | 0.0 | 0.9 | 0.09 | 0.13 | 0.09 | 90 | 1012.1 |
| 20260509081552 | 37 | 0 | 0.0 | 0.0 | 0.06 | 0.10 | 0.06 | 89 | 1012.3 |
| 20260509080050 | 37 | 0 | 0.0 | 0.0 | 0.04 | 0.08 | 0.04 | 88 | 1012.3 |
| 20260509074607 | 37 | 0 | 0.0 | 0.0 | 0.01 | 0.05 | 0.01 | 85 | 1012.1 |
| 20260509073103 | 37 | 0 | 0.0 | 0.0 | 0.00 | 0.04 | 0.00 | 80 | 1012.0 |
| 20260509071558 | 36 | 0 | 0.0 | 0.9 | 0.00 | 0.04 | 0.00 | 84 | 1011.9 |
| 20260509070048 | 37 | 0 | 0.0 | 0.0 | 0.00 | 0.04 | 0.00 | 81 | 1011.9 |
| 20260509064547 | 37 | 0 | 0.9 | 2.6 | 0.00 | 0.04 | 0.00 | 77 | 1012.0 |
| 20260509063055 | 35 | 0 | 0.0 | 0.0 | 0.00 | 0.04 | 0.00 | 84 | 1012.1 |
| 20260509061548 | 34 | 0 | 0.0 | 0.0 | 0.00 | 0.04 | 0.00 | 84 | 1012.3 |
| 20260509060105 | 34 | 0 | 0.0 | 0.0 | 0.00 | 0.04 | 0.00 | 84 | 1012.3 |